createdAt,value
2017-09-18T00:00:56.347Z,7.50
2017-09-18T00:03:24.683Z,7.40
2017-09-18T00:05:53.000Z,7.40
2017-09-18T00:08:21.352Z,7.40
2017-09-18T00:10:49.671Z,7.30
2017-09-18T00:13:17.984Z,7.20
2017-09-18T00:15:46.323Z,7.20
2017-09-18T00:18:14.632Z,7.10
2017-09-18T00:20:42.972Z,7.10
2017-09-18T00:23:11.284Z,7.00
2017-09-18T00:25:39.623Z,7.00
2017-09-18T00:28:07.940Z,6.90
2017-09-18T00:30:36.300Z,6.90
2017-09-18T00:33:04.621Z,6.90
2017-09-18T00:35:32.928Z,6.80
2017-09-18T00:38:01.256Z,6.80
2017-09-18T00:40:29.573Z,6.70
2017-09-18T00:42:57.915Z,6.60
2017-09-18T00:45:26.240Z,6.60
2017-09-18T00:47:54.576Z,6.50
2017-09-18T00:50:22.884Z,6.50
2017-09-18T00:52:51.192Z,6.50
2017-09-18T00:55:19.524Z,6.50
2017-09-18T00:57:47.837Z,6.50
2017-09-18T01:00:16.173Z,6.50
2017-09-18T01:02:44.492Z,6.40
2017-09-18T01:05:12.827Z,6.40
2017-09-18T01:07:41.144Z,6.30
2017-09-18T01:10:09.509Z,6.30
2017-09-18T01:12:37.855Z,6.20
2017-09-18T01:15:06.184Z,6.20
2017-09-18T01:17:34.537Z,6.20
2017-09-18T01:20:02.848Z,6.20
2017-09-18T01:22:31.191Z,6.20
2017-09-18T01:24:59.508Z,6.10
2017-09-18T01:27:27.840Z,6.10
2017-09-18T01:29:56.164Z,6.00
2017-09-18T01:32:24.516Z,6.00
2017-09-18T01:34:52.828Z,6.00
2017-09-18T01:37:21.136Z,6.00
2017-09-18T01:39:49.469Z,5.90
2017-09-18T01:42:17.780Z,5.90
2017-09-18T01:44:46.112Z,5.90
2017-09-18T01:47:14.440Z,5.90
2017-09-18T01:49:42.768Z,5.90
2017-09-18T01:52:11.105Z,5.90
2017-09-18T01:54:39.452Z,5.90
2017-09-18T01:57:07.768Z,5.90
2017-09-18T01:59:36.085Z,5.80
2017-09-18T02:02:04.416Z,5.90
2017-09-18T02:04:32.723Z,5.90
2017-09-18T02:07:01.068Z,5.90
2017-09-18T02:09:29.384Z,5.90
2017-09-18T02:11:57.729Z,5.90
2017-09-18T02:14:26.053Z,5.90
2017-09-18T02:16:54.409Z,5.90
2017-09-18T02:19:22.745Z,5.90
2017-09-18T02:21:51.056Z,5.90
2017-09-18T02:24:18.623Z,5.80
2017-09-18T02:26:46.939Z,5.90
2017-09-18T02:29:15.277Z,5.90
2017-09-18T02:31:43.588Z,5.90
2017-09-18T02:34:11.916Z,6.00
2017-09-18T02:36:40.220Z,6.00
2017-09-18T02:39:08.581Z,6.00
2017-09-18T02:41:36.888Z,6.10
2017-09-18T02:44:05.204Z,6.10
2017-09-18T02:46:33.539Z,6.20
2017-09-18T02:49:01.847Z,6.20
2017-09-18T02:51:30.185Z,6.20
2017-09-18T02:53:58.504Z,6.30
2017-09-18T02:56:26.832Z,6.30
2017-09-18T02:58:55.153Z,6.30
2017-09-18T03:01:23.459Z,6.30
2017-09-18T03:03:51.833Z,6.30
2017-09-18T03:06:20.144Z,6.30
2017-09-18T03:08:48.604Z,6.40
2017-09-18T03:11:16.916Z,6.40
2017-09-18T03:13:45.248Z,6.40
2017-09-18T03:16:13.561Z,6.40
2017-09-18T03:18:41.899Z,6.40
2017-09-18T03:21:09.448Z,6.40
2017-09-18T03:23:37.820Z,6.50
2017-09-18T03:26:06.152Z,6.50
2017-09-18T03:28:34.470Z,6.50
2017-09-18T03:31:02.796Z,6.50
2017-09-18T03:33:31.125Z,6.50
2017-09-18T03:35:59.455Z,6.50
2017-09-18T03:38:27.880Z,6.40
2017-09-18T03:40:56.223Z,6.40
2017-09-18T03:43:24.540Z,6.50
2017-09-18T03:45:52.856Z,6.50
2017-09-18T03:48:21.225Z,6.50
2017-09-18T03:50:49.536Z,6.50
2017-09-18T03:53:17.963Z,6.50
2017-09-18T03:55:46.280Z,6.50
2017-09-18T03:58:14.620Z,6.50
2017-09-18T04:00:42.936Z,6.50
2017-09-18T04:03:11.289Z,6.50
2017-09-18T04:05:39.628Z,6.40
2017-09-18T04:08:07.935Z,6.40
2017-09-18T04:10:36.309Z,6.30
2017-09-18T04:13:04.620Z,6.30
2017-09-18T04:15:32.242Z,6.30
2017-09-18T04:18:00.551Z,6.30
2017-09-18T04:20:28.900Z,6.20
2017-09-18T04:22:57.208Z,6.20
2017-09-18T04:25:25.657Z,6.20
2017-09-18T04:27:53.969Z,6.10
2017-09-18T04:30:22.328Z,6.10
2017-09-18T04:32:50.644Z,6.10
2017-09-18T04:35:19.039Z,6.00
2017-09-18T04:37:47.368Z,6.00
2017-09-18T04:40:15.808Z,6.00
2017-09-18T04:42:44.136Z,5.90
2017-09-18T04:45:11.684Z,5.90
2017-09-18T04:47:40.020Z,5.90
2017-09-18T04:50:08.392Z,5.90
2017-09-18T04:52:36.739Z,5.90
2017-09-18T04:55:05.056Z,6.00
2017-09-18T04:57:33.364Z,6.00
2017-09-18T05:00:01.723Z,6.00
2017-09-18T05:02:30.041Z,6.00
2017-09-18T05:04:58.382Z,6.10
2017-09-18T05:07:26.701Z,6.10
2017-09-18T05:09:55.156Z,6.10
2017-09-18T05:12:22.700Z,6.10
2017-09-18T05:14:51.007Z,6.10
2017-09-18T05:17:19.340Z,6.20
2017-09-18T05:19:47.709Z,6.20
2017-09-18T05:22:16.044Z,6.30
2017-09-18T05:24:44.476Z,6.30
2017-09-18T05:27:12.827Z,6.30
2017-09-18T05:29:41.151Z,6.40
2017-09-18T05:32:09.460Z,6.40
2017-09-18T05:34:37.794Z,6.40
2017-09-18T05:37:06.112Z,6.50
2017-09-18T05:39:34.561Z,6.50
2017-09-18T05:42:02.872Z,6.60
2017-09-18T05:44:31.227Z,6.70
2017-09-18T05:46:59.572Z,6.90
2017-09-18T05:49:27.916Z,6.90
2017-09-18T05:51:56.347Z,7.10
2017-09-18T05:54:24.669Z,7.20
2017-09-18T05:56:53.096Z,7.30
2017-09-18T05:59:21.464Z,7.40
2017-09-18T06:01:49.052Z,7.40
2017-09-18T06:04:17.376Z,7.60
2017-09-18T06:06:45.685Z,7.60
2017-09-18T06:09:14.015Z,7.70
2017-09-18T06:11:42.428Z,7.70
2017-09-18T06:14:10.756Z,7.70
2017-09-18T06:16:39.092Z,7.70
2017-09-18T06:19:07.440Z,7.80
2017-09-18T06:21:35.839Z,7.90
2017-09-18T06:24:04.157Z,8.00
2017-09-18T06:26:31.728Z,8.00
2017-09-18T06:29:00.056Z,8.20
2017-09-18T06:31:28.392Z,8.30
2017-09-18T06:33:56.706Z,8.50
2017-09-18T06:36:25.117Z,8.60
2017-09-18T06:38:53.439Z,8.80
2017-09-18T06:41:21.869Z,8.90
2017-09-18T06:43:50.208Z,9.10
2017-09-18T06:46:18.524Z,9.20
2017-09-18T06:48:46.856Z,9.40
2017-09-18T06:51:15.175Z,9.50
2017-09-18T06:53:43.533Z,9.50
2017-09-18T06:56:11.912Z,9.60
2017-09-18T06:58:40.228Z,9.90
2017-09-18T07:01:08.589Z,10.10
2017-09-18T07:03:36.911Z,10.40
2017-09-18T07:06:05.248Z,10.60
2017-09-18T07:08:33.568Z,10.80
2017-09-18T07:11:01.918Z,10.90
2017-09-18T07:13:30.240Z,11.00
2017-09-18T07:15:58.555Z,11.00
2017-09-18T07:18:26.896Z,11.10
2017-09-18T07:20:55.209Z,11.10
2017-09-18T07:23:23.548Z,11.20
2017-09-18T07:25:51.859Z,11.30
2017-09-18T07:28:20.212Z,11.60
2017-09-18T07:30:48.520Z,11.80
2017-09-18T07:33:16.072Z,11.80
2017-09-18T07:35:43.644Z,12.00
2017-09-18T07:38:11.965Z,12.30
2017-09-18T07:40:39.530Z,12.30
2017-09-18T07:43:07.841Z,12.40
2017-09-18T07:45:36.183Z,12.50
2017-09-18T07:48:04.496Z,12.50
2017-09-18T07:50:32.808Z,12.60
2017-09-18T07:53:01.148Z,12.70
2017-09-18T07:55:29.456Z,12.60
2017-09-18T07:57:57.791Z,12.60
2017-09-18T08:00:26.116Z,12.70
2017-09-18T08:02:54.447Z,12.80
2017-09-18T08:05:21.996Z,12.80
2017-09-18T08:07:50.352Z,13.00
2017-09-18T08:10:18.672Z,13.20
2017-09-18T08:12:46.990Z,13.30
2017-09-18T08:15:15.332Z,13.30
2017-09-18T08:17:43.657Z,13.30
2017-09-18T08:20:12.005Z,13.30
2017-09-18T08:22:40.331Z,13.40
2017-09-18T08:25:08.684Z,13.40
2017-09-18T08:27:37.004Z,13.40
2017-09-18T08:30:05.354Z,13.40
2017-09-18T08:32:33.668Z,13.40
2017-09-18T08:35:02.008Z,13.30
2017-09-18T08:37:30.324Z,13.30
2017-09-18T08:39:58.631Z,13.40
2017-09-18T08:42:26.973Z,13.30
2017-09-18T08:44:55.283Z,13.10
2017-09-18T08:47:23.623Z,13.00
2017-09-18T08:49:51.936Z,12.90
2017-09-18T08:52:20.280Z,12.80
2017-09-18T08:54:48.588Z,12.90
2017-09-18T08:57:16.957Z,12.90
2017-09-18T08:59:45.268Z,13.00
2017-09-18T09:02:12.820Z,13.00
2017-09-18T09:04:41.157Z,13.10
2017-09-18T09:07:09.471Z,13.30
2017-09-18T09:09:37.800Z,13.50
2017-09-18T09:12:06.119Z,13.80
2017-09-18T09:14:34.455Z,14.00
2017-09-18T09:17:02.776Z,14.10
2017-09-18T09:19:31.136Z,14.20
2017-09-18T09:21:59.460Z,14.30
2017-09-18T09:24:27.780Z,14.40
2017-09-18T09:26:56.119Z,14.40
2017-09-18T09:29:24.444Z,14.40
2017-09-18T09:31:52.820Z,14.30
2017-09-18T09:34:21.150Z,14.30
2017-09-18T09:36:49.492Z,14.20
2017-09-18T09:39:17.821Z,14.30
2017-09-18T09:41:46.175Z,14.30
2017-09-18T09:44:14.496Z,14.30
2017-09-18T09:46:42.816Z,14.40
2017-09-18T09:49:11.144Z,14.50
2017-09-18T09:51:39.460Z,14.70
2017-09-18T09:54:07.791Z,14.80
2017-09-18T09:56:36.104Z,14.80
2017-09-18T09:59:04.435Z,14.80
2017-09-18T10:01:32.748Z,14.80
2017-09-18T10:04:01.068Z,14.70
2017-09-18T10:06:29.497Z,14.70
2017-09-18T10:08:57.831Z,14.90
2017-09-18T10:11:25.402Z,14.90
2017-09-18T10:13:53.716Z,15.20
2017-09-18T10:16:22.051Z,15.50
2017-09-18T10:18:50.368Z,15.80
2017-09-18T10:21:18.727Z,16.10
2017-09-18T10:23:47.052Z,16.30
2017-09-18T10:26:15.375Z,16.30
2017-09-18T10:28:43.712Z,16.00
2017-09-18T10:31:12.028Z,15.80
2017-09-18T10:33:40.369Z,15.80
2017-09-18T10:36:08.693Z,16.20
2017-09-18T10:38:37.029Z,16.70
2017-09-18T10:41:05.345Z,17.10
2017-09-18T10:43:33.692Z,17.30
2017-09-18T10:46:02.009Z,17.30
2017-09-18T10:48:30.320Z,17.10
2017-09-18T10:50:58.669Z,16.90
2017-09-18T10:53:26.984Z,16.80
2017-09-18T10:55:55.318Z,16.70
2017-09-18T10:58:23.637Z,16.50
2017-09-18T11:00:51.981Z,16.00
2017-09-18T11:03:20.296Z,15.80
2017-09-18T11:05:48.642Z,15.90
2017-09-18T11:08:16.976Z,16.00
2017-09-18T11:10:45.284Z,16.40
2017-09-18T11:13:13.621Z,16.90
2017-09-18T11:15:41.945Z,17.10
2017-09-18T11:18:10.276Z,16.90
2017-09-18T11:20:38.588Z,17.20
2017-09-18T11:23:06.945Z,17.30
2017-09-18T11:25:35.257Z,17.30
2017-09-18T11:28:03.563Z,17.50
2017-09-18T11:30:31.902Z,17.80
2017-09-18T11:32:59.461Z,17.80
2017-09-18T11:35:27.797Z,18.40
2017-09-18T11:37:56.115Z,18.40
2017-09-18T11:40:24.488Z,18.30
2017-09-18T11:42:52.799Z,18.40
2017-09-18T11:45:21.165Z,18.40
2017-09-18T11:47:49.476Z,18.00
2017-09-18T11:50:17.787Z,17.60
2017-09-18T11:52:46.120Z,17.30
2017-09-18T11:55:14.431Z,17.20
2017-09-18T11:57:42.774Z,17.20
2017-09-18T12:00:11.112Z,17.10
2017-09-18T12:02:39.447Z,16.90
2017-09-18T12:05:07.756Z,16.50
2017-09-18T12:07:36.096Z,16.10
2017-09-18T12:10:04.413Z,15.70
2017-09-18T12:12:32.728Z,15.40
2017-09-18T12:15:01.072Z,15.30
2017-09-18T12:17:29.392Z,15.30
2017-09-18T12:19:57.725Z,15.40
2017-09-18T12:22:26.036Z,15.50
2017-09-18T12:24:54.371Z,15.80
2017-09-18T12:27:22.675Z,16.40
2017-09-18T12:29:50.999Z,16.90
2017-09-18T12:32:19.313Z,17.40
2017-09-18T12:34:47.648Z,17.60
2017-09-18T12:37:15.960Z,17.10
2017-09-18T12:39:44.288Z,16.80
2017-09-18T12:42:12.595Z,16.60
2017-09-18T12:44:40.933Z,16.40
2017-09-18T12:47:09.264Z,16.20
2017-09-18T12:49:37.576Z,16.10
2017-09-18T12:52:05.908Z,16.00
2017-09-18T12:54:34.215Z,16.00
2017-09-18T12:57:02.552Z,16.10
2017-09-18T12:59:30.868Z,16.40
2017-09-18T13:01:59.204Z,16.60
2017-09-18T13:04:27.520Z,16.80
2017-09-18T13:06:55.864Z,16.90
2017-09-18T13:09:24.175Z,16.80
2017-09-18T13:11:52.520Z,16.50
2017-09-18T13:14:20.833Z,16.10
2017-09-18T13:16:49.151Z,15.80
2017-09-18T13:19:17.492Z,15.60
2017-09-18T13:21:45.808Z,15.50
2017-09-18T13:24:14.136Z,15.60
2017-09-18T13:26:42.452Z,15.60
2017-09-18T13:29:10.784Z,15.60
2017-09-18T13:31:39.096Z,15.70
2017-09-18T13:34:07.440Z,15.80
2017-09-18T13:36:35.751Z,15.90
2017-09-18T13:39:04.099Z,15.70
2017-09-18T13:41:32.416Z,15.60
2017-09-18T13:44:00.736Z,15.40
2017-09-18T13:46:29.068Z,15.30
2017-09-18T13:48:57.384Z,15.10
2017-09-18T13:51:25.716Z,15.10
2017-09-18T13:53:54.032Z,15.10
2017-09-18T13:56:21.596Z,15.10
2017-09-18T13:58:49.909Z,15.00
2017-09-18T14:01:18.244Z,15.00
2017-09-18T14:03:46.553Z,14.90
2017-09-18T14:06:14.911Z,14.90
2017-09-18T14:08:43.227Z,14.80
2017-09-18T14:11:11.541Z,14.80
2017-09-18T14:13:39.872Z,14.90
2017-09-18T14:16:08.188Z,15.00
2017-09-18T14:18:36.524Z,15.10
2017-09-18T14:21:04.836Z,15.30
2017-09-18T14:23:33.177Z,15.50
2017-09-18T14:26:01.488Z,15.70
2017-09-18T14:28:29.833Z,15.80
2017-09-18T14:30:58.147Z,15.80
2017-09-18T14:33:26.548Z,16.10
2017-09-18T14:35:54.852Z,16.20
2017-09-18T14:38:23.164Z,16.10
2017-09-18T14:40:51.495Z,16.10
2017-09-18T14:43:19.812Z,16.10
2017-09-18T14:45:48.140Z,16.00
2017-09-18T14:48:16.453Z,16.20
2017-09-18T14:50:44.023Z,16.20
2017-09-18T14:53:12.328Z,16.40
2017-09-18T14:55:40.680Z,16.40
2017-09-18T14:58:09.003Z,16.30
2017-09-18T15:00:37.311Z,16.10
2017-09-18T15:03:05.643Z,16.00
2017-09-18T15:05:33.956Z,15.80
2017-09-18T15:08:02.289Z,15.80
2017-09-18T15:10:30.603Z,15.60
2017-09-18T15:12:58.940Z,15.60
2017-09-18T15:15:27.257Z,15.70
2017-09-18T15:17:55.592Z,15.80
2017-09-18T15:20:23.912Z,15.80
2017-09-18T15:22:52.275Z,15.70
2017-09-18T15:25:20.593Z,15.60
2017-09-18T15:27:48.911Z,15.70
2017-09-18T15:30:17.244Z,15.60
2017-09-18T15:32:45.557Z,15.50
2017-09-18T15:35:13.893Z,15.50
2017-09-18T15:37:42.207Z,15.50
2017-09-18T15:40:10.545Z,15.40
2017-09-18T15:42:38.855Z,15.40
2017-09-18T15:45:07.193Z,15.40
2017-09-18T15:47:35.523Z,15.40
2017-09-18T15:50:03.872Z,15.30
2017-09-18T15:52:32.209Z,15.20
2017-09-18T15:55:00.524Z,15.20
2017-09-18T15:57:28.868Z,15.20
2017-09-18T15:59:57.179Z,15.10
2017-09-18T16:02:25.511Z,14.90
2017-09-18T16:04:53.815Z,14.80
2017-09-18T16:07:22.168Z,14.50
2017-09-18T16:09:50.511Z,14.40
2017-09-18T16:12:18.840Z,14.40
2017-09-18T16:14:47.155Z,14.30
2017-09-18T16:17:15.501Z,14.20
2017-09-18T16:19:43.047Z,14.20
2017-09-18T16:22:11.360Z,14.20
2017-09-18T16:24:39.709Z,14.10
2017-09-18T16:27:08.028Z,14.00
2017-09-18T16:29:36.409Z,13.90
2017-09-18T16:32:04.720Z,13.90
2017-09-18T16:34:33.069Z,13.90
2017-09-18T16:37:01.388Z,13.90
2017-09-18T16:39:29.720Z,13.90
2017-09-18T16:41:58.032Z,13.90
2017-09-18T16:44:26.384Z,13.80
2017-09-18T16:46:54.705Z,13.70
2017-09-18T16:49:23.028Z,13.70
2017-09-18T16:51:51.384Z,13.60
2017-09-18T16:54:19.712Z,13.60
2017-09-18T16:56:47.288Z,13.60
2017-09-18T16:59:15.611Z,13.50
2017-09-18T17:01:43.944Z,13.50
2017-09-18T17:04:12.260Z,13.50
2017-09-18T17:06:40.609Z,13.50
2017-09-18T17:09:08.928Z,13.50
2017-09-18T17:11:37.324Z,13.40
2017-09-18T17:14:05.801Z,13.40
2017-09-18T17:16:34.729Z,13.30
2017-09-18T17:19:03.068Z,13.30
2017-09-18T17:21:31.388Z,13.20
2017-09-18T17:23:59.736Z,13.10
2017-09-18T17:26:28.047Z,13.00
2017-09-18T17:28:56.380Z,12.90
2017-09-18T17:31:24.692Z,12.90
2017-09-18T17:33:53.024Z,12.80
2017-09-18T17:36:21.340Z,12.80
2017-09-18T17:38:49.688Z,12.70
2017-09-18T17:41:18.008Z,12.70
2017-09-18T17:43:46.324Z,12.60
2017-09-18T17:46:13.900Z,12.60
2017-09-18T17:48:42.220Z,12.60
2017-09-18T17:51:10.560Z,12.60
2017-09-18T17:53:38.881Z,12.50
2017-09-18T17:56:06.453Z,12.50
2017-09-18T17:58:34.788Z,12.50
2017-09-18T18:01:03.144Z,12.40
2017-09-18T18:03:31.455Z,12.40
2017-09-18T18:05:59.776Z,12.40
2017-09-18T18:08:28.124Z,12.30
2017-09-18T18:10:56.444Z,12.40
2017-09-18T18:13:24.780Z,12.30
2017-09-18T18:15:52.329Z,12.30
2017-09-18T18:18:20.668Z,12.20
2017-09-18T18:20:48.981Z,12.20
2017-09-18T18:23:17.340Z,12.20
2017-09-18T18:25:45.660Z,12.20
2017-09-18T18:28:13.999Z,12.10
2017-09-18T18:30:42.329Z,12.20
2017-09-18T18:33:10.651Z,12.10
2017-09-18T18:35:38.993Z,12.10
2017-09-18T18:38:07.315Z,12.10
2017-09-18T18:40:35.684Z,12.00
2017-09-18T18:43:04.008Z,12.00
2017-09-18T18:45:32.365Z,12.00
2017-09-18T18:48:00.700Z,12.00
2017-09-18T18:50:29.072Z,12.00
2017-09-18T18:52:57.389Z,12.00
2017-09-18T18:55:24.939Z,12.00
2017-09-18T18:57:53.283Z,12.00
2017-09-18T19:00:21.609Z,12.00
2017-09-18T19:02:49.948Z,12.00
2017-09-18T19:05:18.265Z,12.00
2017-09-18T19:07:46.604Z,12.00
2017-09-18T19:10:14.920Z,12.00
2017-09-18T19:12:43.257Z,11.90
2017-09-18T19:15:10.837Z,11.90
2017-09-18T19:17:39.172Z,11.90
2017-09-18T19:20:07.509Z,11.80
2017-09-18T19:22:35.828Z,11.80
2017-09-18T19:25:04.168Z,11.70
2017-09-18T19:27:32.483Z,11.70
2017-09-18T19:30:00.816Z,11.70
2017-09-18T19:32:29.132Z,11.70
2017-09-18T19:34:57.476Z,11.70
2017-09-18T19:37:25.802Z,11.70
2017-09-18T19:39:54.154Z,11.70
2017-09-18T19:42:22.488Z,11.70
2017-09-18T19:44:50.928Z,11.70
2017-09-18T19:47:19.268Z,11.70
2017-09-18T19:49:47.589Z,11.70
2017-09-18T19:52:15.924Z,11.70
2017-09-18T19:54:44.244Z,11.80
2017-09-18T19:57:12.576Z,11.80
2017-09-18T19:59:40.896Z,11.80
2017-09-18T20:02:09.229Z,11.80
2017-09-18T20:04:37.544Z,11.70
2017-09-18T20:07:05.899Z,11.70
2017-09-18T20:09:34.211Z,11.70
2017-09-18T20:12:02.520Z,11.70
2017-09-18T20:14:30.856Z,11.70
2017-09-18T20:16:59.176Z,11.60
2017-09-18T20:19:27.508Z,11.60
2017-09-18T20:21:55.832Z,11.50
2017-09-18T20:24:24.163Z,11.50
2017-09-18T20:26:52.480Z,11.50
2017-09-18T20:29:20.848Z,11.40
2017-09-18T20:31:49.172Z,11.40
2017-09-18T20:34:17.504Z,11.40
2017-09-18T20:36:45.081Z,11.30
2017-09-18T20:39:13.400Z,11.20
2017-09-18T20:41:41.746Z,11.20
2017-09-18T20:44:10.068Z,11.20
2017-09-18T20:46:38.416Z,11.10
2017-09-18T20:49:06.732Z,11.10
2017-09-18T20:51:35.067Z,11.10
2017-09-18T20:54:03.386Z,11.10
2017-09-18T20:56:31.733Z,11.00
2017-09-18T20:59:00.068Z,11.10
2017-09-18T21:01:28.428Z,11.10
2017-09-18T21:03:56.765Z,11.00
2017-09-18T21:06:25.104Z,11.10
2017-09-18T21:08:53.552Z,11.10
2017-09-18T21:11:21.965Z,11.10
2017-09-18T21:13:50.352Z,11.10
2017-09-18T21:16:18.712Z,11.00
2017-09-18T21:18:47.079Z,11.00
2017-09-18T21:21:15.396Z,10.90
2017-09-18T21:23:43.732Z,10.90
2017-09-18T21:26:12.064Z,10.90
2017-09-18T21:28:40.424Z,11.00
2017-09-18T21:31:08.744Z,11.00
2017-09-18T21:33:37.060Z,11.00
2017-09-18T21:36:05.404Z,11.10
2017-09-18T21:38:33.724Z,11.10
2017-09-18T21:41:02.064Z,11.20
2017-09-18T21:43:30.381Z,11.20
2017-09-18T21:45:58.716Z,11.20
2017-09-18T21:48:27.024Z,11.30
2017-09-18T21:50:55.376Z,11.30
2017-09-18T21:53:23.692Z,11.30
2017-09-18T21:55:52.004Z,11.30
2017-09-18T21:58:20.383Z,11.30
2017-09-18T22:00:48.700Z,11.40
2017-09-18T22:03:17.039Z,11.40
2017-09-18T22:05:44.592Z,11.30
2017-09-18T22:08:12.939Z,11.40
2017-09-18T22:10:41.257Z,11.40
2017-09-18T22:13:09.607Z,11.40
2017-09-18T22:15:37.924Z,11.40
2017-09-18T22:18:06.241Z,11.40
2017-09-18T22:20:34.583Z,11.40
2017-09-18T22:23:02.897Z,11.40
2017-09-18T22:25:31.232Z,11.40
2017-09-18T22:27:59.543Z,11.30
2017-09-18T22:30:27.879Z,11.30
2017-09-18T22:32:56.187Z,11.20
2017-09-18T22:35:24.528Z,11.20
2017-09-18T22:37:52.844Z,11.20
2017-09-18T22:40:21.224Z,11.20
2017-09-18T22:42:49.540Z,11.20
2017-09-18T22:45:17.856Z,11.30
2017-09-18T22:47:46.192Z,11.30
2017-09-18T22:50:14.496Z,11.30
2017-09-18T22:52:42.829Z,11.30
2017-09-18T22:55:11.148Z,11.30
2017-09-18T22:57:39.496Z,11.30
2017-09-18T23:00:07.807Z,11.30
2017-09-18T23:02:36.144Z,11.30
2017-09-18T23:05:04.464Z,11.40
2017-09-18T23:07:32.840Z,11.40
2017-09-18T23:10:01.156Z,11.40
2017-09-18T23:12:29.470Z,11.40
2017-09-18T23:14:57.812Z,11.40
2017-09-18T23:17:26.127Z,11.40
2017-09-18T23:19:54.469Z,11.40
2017-09-18T23:22:22.781Z,11.40
2017-09-18T23:24:51.116Z,11.40
2017-09-18T23:27:19.428Z,11.30
2017-09-18T23:29:47.779Z,11.30
2017-09-18T23:32:16.088Z,11.30
2017-09-18T23:34:44.403Z,11.30
2017-09-18T23:37:12.741Z,11.30
2017-09-18T23:39:41.063Z,11.30
2017-09-18T23:42:09.400Z,11.40
2017-09-18T23:44:37.720Z,11.40
2017-09-18T23:47:06.052Z,11.40
2017-09-18T23:49:34.368Z,11.30
2017-09-18T23:52:02.708Z,11.30
2017-09-18T23:54:31.028Z,11.30
2017-09-18T23:56:59.380Z,11.20
2017-09-18T23:59:26.936Z,11.20
